createdAt,value
2023-04-27T00:01:02.690Z,99.86
2023-04-27T00:03:30.998Z,99.95
2023-04-27T00:05:59.366Z,100.00
2023-04-27T00:08:27.489Z,100.00
2023-04-27T00:10:55.637Z,99.87
2023-04-27T00:13:24.006Z,100.00
2023-04-27T00:15:52.301Z,99.58
2023-04-27T00:18:22.004Z,99.14
2023-04-27T00:20:51.147Z,99.26
2023-04-27T00:23:19.460Z,99.47
2023-04-27T00:25:47.543Z,99.22
2023-04-27T00:28:15.803Z,99.10
2023-04-27T00:30:45.084Z,99.65
2023-04-27T00:33:13.273Z,100.00
2023-04-27T00:35:42.703Z,100.00
2023-04-27T00:38:11.065Z,100.00
2023-04-27T00:40:39.375Z,100.00
2023-04-27T00:43:07.482Z,100.00
2023-04-27T00:45:42.289Z,100.00
2023-04-27T00:48:10.577Z,100.00
2023-04-27T00:50:39.487Z,100.00
2023-04-27T00:53:09.337Z,100.00
2023-04-27T00:55:37.635Z,100.00
2023-04-27T00:58:06.045Z,100.00
2023-04-27T01:00:37.155Z,100.00
2023-04-27T01:03:05.769Z,100.00
2023-04-27T01:05:34.378Z,100.00
2023-04-27T01:08:03.338Z,100.00
2023-04-27T01:10:32.912Z,100.00
2023-04-27T01:13:01.144Z,100.00
2023-04-27T01:15:29.516Z,100.00
2023-04-27T01:18:01.420Z,100.00
2023-04-27T01:20:30.475Z,100.00
2023-04-27T01:22:59.073Z,100.00
2023-04-27T01:25:28.621Z,100.00
2023-04-27T01:27:56.768Z,100.00
2023-04-27T01:30:24.976Z,100.00
2023-04-27T01:32:53.191Z,100.00
2023-04-27T01:35:27.594Z,100.00
2023-04-27T01:37:57.854Z,100.00
2023-04-27T01:40:25.921Z,100.00
2023-04-27T01:42:55.428Z,100.00
2023-04-27T01:45:23.737Z,100.00
2023-04-27T01:47:53.310Z,100.00
2023-04-27T01:50:21.601Z,100.00
2023-04-27T01:52:49.757Z,100.00
2023-04-27T01:55:18.019Z,100.00
2023-04-27T01:57:46.121Z,100.00
2023-04-27T02:00:17.768Z,100.00
2023-04-27T02:02:46.097Z,100.00
2023-04-27T02:05:14.426Z,100.00
2023-04-27T02:07:42.602Z,100.00
2023-04-27T02:10:11.670Z,100.00
2023-04-27T02:12:40.105Z,100.00
2023-04-27T02:15:09.662Z,100.00
2023-04-27T02:17:39.747Z,100.00
2023-04-27T02:20:10.036Z,100.00
2023-04-27T02:22:38.293Z,100.00
2023-04-27T02:25:07.305Z,100.00
2023-04-27T02:27:35.342Z,100.00
2023-04-27T02:30:06.480Z,100.00
2023-04-27T02:32:35.698Z,100.00
2023-04-27T02:35:05.931Z,100.00
2023-04-27T02:37:34.148Z,100.00
2023-04-27T02:40:02.475Z,100.00
2023-04-27T02:42:31.655Z,100.00
2023-04-27T02:44:59.722Z,100.00
2023-04-27T02:47:28.057Z,100.00
2023-04-27T02:49:56.231Z,100.00
2023-04-27T02:52:25.718Z,100.00
2023-04-27T02:54:53.832Z,100.00
2023-04-27T02:57:21.943Z,100.00
2023-04-27T02:59:50.050Z,100.00
2023-04-27T03:02:18.285Z,100.00
2023-04-27T03:04:46.449Z,100.00
2023-04-27T03:07:14.587Z,100.00
2023-04-27T03:09:43.990Z,100.00
2023-04-27T03:12:12.211Z,100.00
2023-04-27T03:14:40.705Z,100.00
2023-04-27T03:17:09.005Z,100.00
2023-04-27T03:19:37.254Z,100.00
2023-04-27T03:22:05.290Z,100.00
2023-04-27T03:24:33.384Z,100.00
2023-04-27T03:27:03.530Z,100.00
2023-04-27T03:29:31.585Z,100.00
2023-04-27T03:31:59.672Z,100.00
2023-04-27T03:34:27.758Z,100.00
2023-04-27T03:36:56.253Z,100.00
2023-04-27T03:39:24.353Z,100.00
2023-04-27T03:41:52.444Z,100.00
2023-04-27T03:44:21.958Z,100.00
2023-04-27T03:46:50.340Z,100.00
2023-04-27T03:49:18.543Z,100.00
2023-04-27T03:51:46.695Z,100.00
2023-04-27T03:54:15.133Z,100.00
2023-04-27T03:56:44.534Z,100.00
2023-04-27T03:59:12.916Z,99.79
2023-04-27T04:01:42.696Z,98.92
2023-04-27T04:04:11.525Z,98.98
2023-04-27T04:06:39.795Z,97.91
2023-04-27T04:09:07.902Z,97.91
2023-04-27T04:11:36.020Z,96.89
2023-04-27T04:14:04.121Z,97.72
2023-04-27T04:16:32.206Z,99.72
2023-04-27T04:19:01.715Z,99.26
2023-04-27T04:21:29.847Z,98.08
2023-04-27T04:23:57.938Z,98.08
2023-04-27T04:26:26.101Z,97.39
2023-04-27T04:28:54.100Z,96.28
2023-04-27T04:31:22.194Z,96.40
2023-04-27T04:33:50.571Z,95.27
2023-04-27T04:36:20.141Z,94.77
2023-04-27T04:38:48.385Z,94.39
2023-04-27T04:41:16.629Z,93.18
2023-04-27T04:43:44.722Z,92.64
2023-04-27T04:46:12.975Z,91.88
2023-04-27T04:48:41.044Z,90.39
2023-04-27T04:51:09.226Z,90.30
2023-04-27T04:53:38.751Z,89.14
2023-04-27T04:56:10.606Z,86.91
2023-04-27T04:58:39.040Z,85.58
2023-04-27T05:01:07.590Z,86.81
2023-04-27T05:03:36.045Z,86.89
2023-04-27T05:06:04.387Z,88.08
2023-04-27T05:08:32.585Z,87.38
2023-04-27T05:11:02.061Z,87.00
2023-04-27T05:13:30.172Z,86.56
2023-04-27T05:15:58.236Z,85.11
2023-04-27T05:18:26.419Z,84.93
2023-04-27T05:20:54.665Z,83.95
2023-04-27T05:23:23.003Z,82.07
2023-04-27T05:25:51.132Z,80.89
2023-04-27T05:28:20.859Z,80.17
2023-04-27T05:30:48.970Z,80.74
2023-04-27T05:33:17.059Z,79.90
2023-04-27T05:35:45.120Z,79.26
2023-04-27T05:38:15.209Z,78.71
2023-04-27T05:40:43.438Z,76.94
2023-04-27T05:43:11.704Z,75.31
2023-04-27T05:45:42.376Z,72.94
2023-04-27T05:48:10.508Z,72.04
2023-04-27T05:50:38.659Z,69.55
2023-04-27T05:53:07.110Z,69.59
2023-04-27T05:55:35.228Z,68.18
2023-04-27T05:58:08.389Z,67.47
2023-04-27T06:00:38.528Z,67.34
2023-04-27T06:03:08.250Z,66.49
2023-04-27T06:05:36.640Z,65.79
2023-04-27T06:08:04.909Z,65.11
2023-04-27T06:10:32.964Z,65.60
2023-04-27T06:13:01.116Z,65.17
2023-04-27T06:15:29.372Z,66.05
2023-04-27T06:17:57.548Z,67.02
2023-04-27T06:20:27.593Z,67.04
2023-04-27T06:22:57.155Z,66.20
2023-04-27T06:25:27.176Z,65.61
2023-04-27T06:27:55.738Z,66.83
2023-04-27T06:30:24.315Z,65.63
2023-04-27T06:32:53.232Z,64.57
2023-04-27T06:35:21.594Z,63.41
2023-04-27T06:37:51.424Z,63.15
2023-04-27T06:40:19.669Z,62.26
2023-04-27T06:42:47.914Z,63.46
2023-04-27T06:45:16.083Z,63.95
2023-04-27T06:47:44.200Z,64.52
2023-04-27T06:50:12.382Z,64.32
2023-04-27T06:52:40.509Z,64.72
2023-04-27T06:55:10.776Z,66.67
2023-04-27T06:57:38.870Z,66.33
2023-04-27T07:00:08.967Z,67.20
2023-04-27T07:02:37.126Z,66.89
2023-04-27T07:05:05.606Z,69.21
2023-04-27T07:07:33.693Z,68.74
2023-04-27T07:10:01.761Z,69.65
2023-04-27T07:12:31.443Z,68.37
2023-04-27T07:14:59.520Z,66.90
2023-04-27T07:17:27.656Z,66.22
2023-04-27T07:19:55.797Z,66.35
2023-04-27T07:22:23.955Z,63.80
2023-04-27T07:24:52.680Z,63.44
2023-04-27T07:27:20.836Z,59.56
2023-04-27T07:29:50.462Z,55.29
2023-04-27T07:32:18.639Z,54.11
2023-04-27T07:34:53.314Z,52.17
2023-04-27T07:37:22.528Z,48.70
2023-04-27T07:39:52.024Z,46.47
2023-04-27T07:42:20.258Z,43.92
2023-04-27T07:44:50.649Z,46.57
2023-04-27T07:47:18.800Z,41.52
2023-04-27T07:49:47.222Z,39.66
2023-04-27T07:52:15.965Z,39.93
2023-04-27T07:54:44.332Z,41.75
2023-04-27T07:57:12.880Z,41.75
2023-04-27T07:59:41.061Z,41.35
2023-04-27T08:02:18.569Z,42.24
2023-04-27T08:04:48.610Z,42.21
2023-04-27T08:07:17.804Z,40.60
2023-04-27T08:09:46.282Z,40.41
2023-04-27T08:12:14.547Z,41.77
2023-04-27T08:14:42.642Z,43.71
2023-04-27T08:17:12.474Z,42.02
2023-04-27T08:19:42.111Z,41.62
2023-04-27T08:22:10.264Z,41.65
2023-04-27T08:24:38.472Z,41.06
2023-04-27T08:27:07.258Z,41.06
2023-04-27T08:29:35.507Z,41.27
2023-04-27T08:32:04.631Z,41.76
2023-04-27T08:34:34.246Z,42.93
2023-04-27T08:37:04.460Z,44.14
2023-04-27T08:39:32.831Z,44.86
2023-04-27T08:42:00.909Z,44.13
2023-04-27T08:44:29.016Z,44.65
2023-04-27T08:46:57.153Z,44.87
2023-04-27T08:49:25.178Z,45.37
2023-04-27T08:51:54.636Z,45.10
2023-04-27T08:54:23.045Z,44.54
2023-04-27T08:56:51.193Z,44.94
2023-04-27T08:59:19.261Z,45.61
2023-04-27T09:01:49.171Z,45.38
2023-04-27T09:04:20.031Z,45.88
2023-04-27T09:06:49.773Z,45.22
2023-04-27T09:09:26.306Z,44.99
2023-04-27T09:11:54.470Z,45.26
2023-04-27T09:14:24.835Z,45.42
2023-04-27T09:16:58.181Z,45.43
2023-04-27T09:19:27.173Z,45.26
2023-04-27T09:22:05.527Z,44.82
2023-04-27T09:24:35.035Z,44.06
2023-04-27T09:27:05.206Z,43.35
2023-04-27T09:29:38.691Z,42.81
2023-04-27T09:32:17.731Z,41.28
2023-04-27T09:34:46.455Z,42.22
2023-04-27T09:37:15.651Z,42.89
2023-04-27T09:39:45.856Z,44.61
2023-04-27T09:42:15.942Z,44.38
2023-04-27T09:44:44.030Z,44.58
2023-04-27T09:47:12.402Z,43.78
2023-04-27T09:49:40.584Z,44.60
2023-04-27T09:52:08.683Z,42.34
2023-04-27T09:54:38.357Z,41.99
2023-04-27T09:57:18.147Z,40.07
2023-04-27T09:59:56.807Z,37.61
2023-04-27T10:02:26.027Z,36.55
2023-04-27T10:05:17.696Z,37.02
2023-04-27T10:07:49.381Z,38.83
2023-04-27T10:10:18.912Z,38.18
2023-04-27T10:12:57.857Z,38.22
2023-04-27T10:15:30.306Z,37.91
2023-04-27T10:18:06.151Z,37.61
2023-04-27T10:20:36.106Z,38.65
2023-04-27T10:23:04.756Z,38.34
2023-04-27T10:25:40.622Z,40.35
2023-04-27T10:28:16.415Z,38.89
2023-04-27T10:30:47.293Z,38.94
2023-04-27T10:33:18.800Z,37.66
2023-04-27T10:35:55.605Z,38.01
2023-04-27T10:38:29.581Z,37.82
2023-04-27T10:41:01.775Z,37.61
2023-04-27T10:43:32.875Z,38.65
2023-04-27T10:46:11.689Z,37.63
2023-04-27T10:48:40.817Z,37.92
2023-04-27T10:51:09.446Z,37.91
2023-04-27T10:53:37.800Z,37.92
2023-04-27T10:56:07.233Z,38.36
2023-04-27T11:01:10.136Z,38.09
2023-04-27T11:03:39.114Z,38.14
2023-04-27T11:06:08.681Z,38.20
2023-04-27T11:08:45.281Z,39.05
2023-04-27T11:11:16.929Z,38.95
2023-04-27T11:13:49.435Z,38.00
2023-04-27T11:16:19.602Z,38.76
2023-04-27T11:18:47.796Z,40.29
2023-04-27T11:21:16.876Z,38.89
2023-04-27T11:23:45.234Z,39.29
2023-04-27T11:26:14.803Z,38.43
2023-04-27T11:28:43.200Z,36.30
2023-04-27T11:31:13.049Z,36.59
2023-04-27T11:33:49.044Z,36.08
2023-04-27T11:36:21.156Z,34.19
2023-04-27T11:38:49.304Z,34.99
2023-04-27T11:41:17.821Z,37.22
2023-04-27T11:43:49.631Z,36.86
2023-04-27T11:46:22.747Z,36.21
2023-04-27T11:48:51.019Z,33.24
2023-04-27T11:51:19.438Z,32.03
2023-04-27T11:53:51.267Z,31.32
2023-04-27T11:56:19.477Z,33.98
2023-04-27T11:58:47.670Z,34.26
2023-04-27T12:01:21.839Z,36.36
2023-04-27T12:03:58.684Z,32.34
2023-04-27T12:06:33.237Z,31.11
2023-04-27T12:09:01.889Z,33.49
2023-04-27T12:11:30.146Z,35.42
2023-04-27T12:13:58.753Z,33.02
2023-04-27T12:16:27.076Z,31.71
2023-04-27T12:18:56.635Z,33.48
2023-04-27T12:21:24.854Z,33.71
2023-04-27T12:23:53.003Z,33.20
2023-04-27T12:26:21.633Z,31.53
2023-04-27T12:28:49.903Z,35.57
2023-04-27T12:31:19.059Z,33.25
2023-04-27T12:33:49.298Z,32.62
2023-04-27T12:36:18.848Z,34.25
2023-04-27T12:38:47.374Z,35.21
2023-04-27T12:41:15.722Z,33.54
2023-04-27T12:43:45.899Z,32.60
2023-04-27T12:46:14.084Z,34.97
2023-04-27T12:48:42.302Z,31.92
2023-04-27T12:51:10.517Z,32.55
2023-04-27T12:53:40.078Z,30.88
2023-04-27T12:56:08.592Z,28.42
2023-04-27T12:58:36.638Z,28.13
2023-04-27T13:01:04.850Z,26.72
2023-04-27T13:03:33.027Z,24.33
2023-04-27T13:06:02.065Z,25.92
2023-04-27T13:08:30.874Z,24.56
2023-04-27T13:11:00.415Z,26.36
2023-04-27T13:13:28.539Z,28.21
2023-04-27T13:15:58.367Z,27.67
2023-04-27T13:18:26.734Z,24.86
2023-04-27T13:20:54.949Z,26.26
2023-04-27T13:23:23.019Z,27.65
2023-04-27T13:25:51.152Z,28.40
2023-04-27T13:28:20.731Z,29.80
2023-04-27T13:30:49.143Z,31.17
2023-04-27T13:33:23.173Z,29.72
2023-04-27T13:48:49.261Z,29.62
2023-04-27T13:51:17.546Z,31.76
2023-04-27T13:53:45.928Z,32.68
2023-04-27T13:56:14.233Z,33.59
2023-04-27T13:58:42.562Z,34.75
2023-04-27T14:01:10.980Z,32.06
2023-04-27T14:06:09.742Z,32.50
2023-04-27T14:08:38.108Z,32.02
2023-04-27T14:11:07.412Z,30.90
2023-04-27T14:13:35.743Z,31.20
2023-04-27T14:16:03.858Z,29.39
2023-04-27T14:18:33.514Z,28.40
2023-04-27T14:21:02.054Z,29.97
2023-04-27T14:23:31.964Z,31.13
2023-04-27T14:26:00.073Z,31.14
2023-04-27T14:28:28.140Z,31.33
2023-04-27T14:30:56.234Z,31.41
2023-04-27T14:33:24.226Z,34.45
2023-04-27T14:35:52.499Z,34.89
2023-04-27T14:38:20.638Z,32.92
2023-04-27T14:40:50.221Z,33.35
2023-04-27T14:43:18.369Z,36.03
2023-04-27T14:45:52.926Z,32.57
2023-04-27T14:48:26.419Z,32.63
2023-04-27T14:50:57.544Z,31.86
2023-04-27T14:53:26.032Z,33.02
2023-04-27T14:55:55.515Z,36.54
2023-04-27T14:58:23.712Z,33.18
2023-04-27T15:00:52.081Z,34.34
2023-04-27T15:03:20.435Z,36.47
2023-04-27T15:05:48.739Z,33.27
2023-04-27T15:08:17.241Z,36.33
2023-04-27T15:10:45.523Z,35.03
2023-04-27T15:13:15.228Z,38.24
2023-04-27T15:15:45.653Z,34.39
2023-04-27T15:18:13.982Z,37.02
2023-04-27T15:20:43.565Z,35.82
2023-04-27T15:23:12.197Z,35.73
2023-04-27T15:25:40.380Z,37.31
2023-04-27T15:28:08.492Z,37.17
2023-04-27T15:30:37.996Z,35.19
2023-04-27T15:33:08.181Z,35.31
2023-04-27T15:35:40.361Z,36.71
2023-04-27T15:38:09.595Z,37.62
2023-04-27T15:40:38.027Z,34.86
2023-04-27T15:43:06.141Z,36.91
2023-04-27T15:45:34.312Z,35.98
2023-04-27T15:48:03.889Z,34.99
2023-04-27T15:50:32.236Z,36.90
2023-04-27T15:53:00.824Z,37.39
2023-04-27T15:55:29.071Z,36.39
2023-04-27T15:57:57.242Z,35.25
2023-04-27T16:00:25.496Z,37.40
2023-04-27T16:02:53.920Z,36.86
2023-04-27T16:05:23.588Z,38.62
2023-04-27T16:07:51.671Z,36.66
2023-04-27T16:10:19.831Z,35.30
2023-04-27T16:12:47.924Z,37.73
2023-04-27T16:15:16.179Z,37.25
2023-04-27T16:17:44.324Z,35.59
2023-04-27T16:20:12.849Z,37.93
2023-04-27T16:22:42.300Z,39.64
2023-04-27T16:25:11.468Z,36.89
2023-04-27T16:27:40.264Z,35.78
2023-04-27T16:30:09.436Z,37.72
2023-04-27T16:32:38.716Z,36.80
2023-04-27T16:35:08.048Z,36.59
2023-04-27T16:37:36.259Z,36.74
2023-04-27T16:40:07.800Z,36.56
2023-04-27T16:42:36.073Z,38.55
2023-04-27T16:45:04.350Z,37.53
2023-04-27T16:47:32.680Z,40.00
2023-04-27T16:50:01.107Z,39.83
2023-04-27T16:52:29.310Z,41.82
2023-04-27T16:54:57.619Z,39.63
2023-04-27T16:57:27.173Z,40.91
2023-04-27T16:59:55.503Z,37.92
2023-04-27T17:02:24.993Z,39.03
2023-04-27T17:04:54.454Z,39.92
2023-04-27T17:07:22.782Z,39.10
2023-04-27T17:09:50.959Z,42.37
2023-04-27T17:12:19.082Z,39.14
2023-04-27T17:14:48.588Z,39.17
2023-04-27T17:17:16.867Z,39.59
2023-04-27T17:19:45.051Z,39.60
2023-04-27T17:22:15.055Z,38.30
2023-04-27T17:24:43.390Z,39.40
2023-04-27T17:27:11.966Z,39.05
2023-04-27T17:29:42.097Z,40.94
2023-04-27T17:32:11.739Z,39.82
2023-04-27T17:34:42.447Z,41.51
2023-04-27T17:37:11.069Z,40.83
2023-04-27T17:39:39.269Z,41.57
2023-04-27T17:42:12.235Z,40.35
2023-04-27T17:44:42.115Z,40.21
2023-04-27T17:47:11.832Z,40.95
2023-04-27T17:49:40.159Z,41.28
2023-04-27T17:52:08.347Z,39.97
2023-04-27T17:54:36.899Z,39.48
2023-04-27T17:57:05.760Z,40.29
2023-04-27T17:59:34.253Z,38.83
2023-04-27T18:02:03.087Z,42.09
2023-04-27T18:04:32.814Z,42.12
2023-04-27T18:07:01.178Z,41.95
2023-04-27T18:09:30.860Z,41.72
2023-04-27T18:12:02.411Z,41.67
2023-04-27T18:14:30.871Z,42.51
2023-04-27T18:16:59.103Z,39.83
2023-04-27T18:19:27.394Z,40.72
2023-04-27T18:21:57.006Z,41.76
2023-04-27T18:24:25.417Z,42.50
2023-04-27T18:26:55.237Z,41.95
2023-04-27T18:29:23.397Z,40.95
2023-04-27T18:31:51.598Z,41.21
2023-04-27T18:34:19.745Z,41.63
2023-04-27T18:36:51.994Z,42.48
2023-04-27T18:39:22.150Z,41.67
2023-04-27T18:41:50.229Z,40.48
2023-04-27T18:44:18.781Z,42.22
2023-04-27T18:46:46.841Z,40.50
2023-04-27T18:49:15.230Z,41.93
2023-04-27T18:51:43.721Z,41.12
2023-04-27T18:54:11.836Z,41.81
2023-04-27T18:56:41.619Z,42.36
2023-04-27T18:59:09.808Z,42.36
2023-04-27T19:01:38.264Z,42.79
2023-04-27T19:04:07.385Z,42.86
2023-04-27T19:06:35.810Z,42.85
2023-04-27T19:09:03.905Z,42.71
2023-04-27T19:11:32.231Z,44.08
2023-04-27T19:14:01.895Z,42.62
2023-04-27T19:16:30.314Z,43.39
2023-04-27T19:18:58.655Z,42.93
2023-04-27T19:21:26.933Z,42.12
2023-04-27T19:23:55.068Z,43.03
2023-04-27T19:26:23.241Z,42.61
2023-04-27T19:28:51.365Z,43.44
2023-04-27T19:31:21.032Z,42.85
2023-04-27T19:36:23.124Z,42.97
2023-04-27T19:38:51.564Z,43.11
2023-04-27T19:41:19.886Z,43.43
2023-04-27T19:43:49.390Z,43.24
2023-04-27T19:46:17.632Z,43.77
2023-04-27T19:48:47.508Z,43.61
2023-04-27T19:51:15.883Z,43.73
2023-04-27T19:53:44.105Z,43.66
2023-04-27T19:56:12.211Z,43.83
2023-04-27T19:58:40.361Z,44.52
2023-04-27T20:01:09.966Z,44.81
2023-04-27T20:03:40.306Z,45.40
2023-04-27T20:06:11.715Z,45.24
2023-04-27T20:08:40.354Z,45.04
2023-04-27T20:11:08.629Z,45.36
2023-04-27T20:13:36.865Z,45.11
2023-04-27T20:16:06.779Z,45.24
2023-04-27T20:18:35.207Z,45.09
2023-04-27T20:21:04.338Z,44.82
2023-04-27T20:23:34.061Z,44.85
2023-04-27T20:26:02.741Z,44.87
2023-04-27T20:28:30.949Z,44.71
2023-04-27T20:30:59.169Z,44.99
2023-04-27T20:33:27.365Z,45.11
2023-04-27T20:36:03.704Z,45.20
2023-04-27T20:38:39.769Z,45.25
2023-04-27T20:41:08.819Z,44.88
2023-04-27T20:43:40.320Z,44.98
2023-04-27T20:46:08.744Z,45.16
2023-04-27T20:48:36.994Z,45.57
2023-04-27T20:51:05.234Z,45.88
2023-04-27T20:53:34.066Z,46.07
2023-04-27T20:56:03.899Z,45.99
2023-04-27T20:58:32.153Z,45.72
2023-04-27T21:01:00.774Z,45.68
2023-04-27T21:03:29.352Z,46.11
2023-04-27T21:05:57.617Z,46.11
2023-04-27T21:08:26.624Z,46.20
2023-04-27T21:10:54.847Z,46.51
2023-04-27T21:13:24.460Z,46.85
2023-04-27T21:15:52.566Z,48.36
2023-04-27T21:18:29.897Z,49.22
2023-04-27T21:20:58.965Z,50.16
2023-04-27T21:23:27.169Z,51.33
2023-04-27T21:25:55.902Z,52.11
2023-04-27T21:28:25.401Z,53.52
2023-04-27T21:30:53.557Z,54.02
2023-04-27T21:33:21.675Z,54.06
2023-04-27T21:35:50.075Z,54.28
2023-04-27T21:38:18.160Z,54.99
2023-04-27T21:40:46.233Z,54.97
2023-04-27T21:43:14.490Z,55.63
2023-04-27T21:45:44.251Z,56.11
2023-04-27T21:48:12.499Z,56.85
2023-04-27T21:50:40.849Z,57.93
2023-04-27T21:53:09.486Z,58.41
2023-04-27T21:55:37.888Z,58.68
2023-04-27T21:58:06.041Z,59.44
2023-04-27T22:00:36.649Z,58.55
2023-04-27T22:03:06.721Z,59.50
2023-04-27T22:05:37.224Z,60.61
2023-04-27T22:08:05.646Z,60.92
2023-04-27T22:10:33.929Z,61.23
2023-04-27T22:13:08.212Z,61.86
2023-04-27T22:15:45.977Z,60.96
2023-04-27T22:18:15.892Z,61.46
2023-04-27T22:20:44.348Z,61.78
2023-04-27T22:23:12.678Z,63.39
2023-04-27T22:25:42.904Z,65.44
2023-04-27T22:28:11.410Z,67.59
2023-04-27T22:30:41.858Z,68.82
2023-04-27T22:33:10.417Z,69.59
2023-04-27T22:35:40.253Z,69.76
2023-04-27T22:38:08.749Z,71.03
2023-04-27T22:40:37.404Z,70.57
2023-04-27T22:43:06.446Z,71.79
2023-04-27T22:45:36.131Z,71.89
2023-04-27T22:48:06.882Z,72.73
2023-04-27T22:50:35.280Z,71.08
2023-04-27T22:53:05.005Z,70.79
2023-04-27T22:55:33.071Z,68.36
2023-04-27T22:58:01.308Z,65.76
2023-04-27T23:00:29.495Z,65.51
2023-04-27T23:02:57.786Z,64.62
2023-04-27T23:05:26.885Z,64.18
2023-04-27T23:07:55.140Z,64.71
2023-04-27T23:10:25.119Z,65.33
2023-04-27T23:12:54.890Z,65.97
2023-04-27T23:15:24.071Z,66.73
2023-04-27T23:17:52.276Z,67.36
2023-04-27T23:20:28.000Z,68.45
2023-04-27T23:22:56.624Z,69.44
2023-04-27T23:25:26.562Z,71.56
2023-04-27T23:27:54.883Z,72.73
2023-04-27T23:30:24.720Z,74.17
2023-04-27T23:32:53.460Z,75.36
2023-04-27T23:35:21.690Z,77.79
2023-04-27T23:37:49.894Z,78.22
2023-04-27T23:40:18.545Z,79.02
2023-04-27T23:42:50.849Z,79.88
2023-04-27T23:45:19.818Z,81.19
2023-04-27T23:47:47.994Z,81.85
2023-04-27T23:50:17.258Z,82.36
2023-04-27T23:52:45.580Z,83.47
2023-04-27T23:55:13.715Z,84.06
2023-04-27T23:57:42.433Z,84.13
